createdAt,value
2023-05-10T00:00:37.424Z,14.92
2023-05-10T00:01:37.372Z,14.87
2023-05-10T00:02:37.487Z,14.79
2023-05-10T00:03:37.441Z,14.74
2023-05-10T00:04:37.417Z,14.73
2023-05-10T00:05:37.149Z,14.66
2023-05-10T00:06:37.427Z,14.58
2023-05-10T00:07:37.424Z,14.52
2023-05-10T00:08:37.440Z,14.45
2023-05-10T00:09:37.450Z,14.34
2023-05-10T00:10:37.258Z,14.23
2023-05-10T00:11:37.105Z,14.19
2023-05-10T00:12:37.114Z,14.11
2023-05-10T00:13:37.190Z,14.08
2023-05-10T00:14:37.094Z,14.03
2023-05-10T00:15:37.289Z,13.97
2023-05-10T00:16:37.495Z,13.91
2023-05-10T00:17:37.669Z,13.83
2023-05-10T00:18:37.621Z,13.78
2023-05-10T00:19:37.312Z,13.78
2023-05-10T00:20:37.124Z,13.72
2023-05-10T00:21:37.350Z,13.71
2023-05-10T00:22:37.739Z,13.68
2023-05-10T00:23:37.338Z,13.65
2023-05-10T00:24:37.150Z,13.64
2023-05-10T00:25:37.044Z,13.61
2023-05-10T00:26:37.000Z,13.64
2023-05-10T00:27:37.021Z,13.61
2023-05-10T00:28:37.062Z,13.54
2023-05-10T00:29:37.119Z,13.53
2023-05-10T00:30:37.199Z,13.51
2023-05-10T00:31:37.257Z,13.47
2023-05-10T00:33:37.447Z,13.40
2023-05-10T00:34:37.478Z,13.43
2023-05-10T00:35:37.230Z,13.42
2023-05-10T00:36:36.946Z,13.43
2023-05-10T00:37:37.663Z,13.39
2023-05-10T00:38:37.075Z,13.43
2023-05-10T00:39:37.700Z,13.43
2023-05-10T00:40:36.973Z,13.40
2023-05-10T00:41:37.668Z,13.36
2023-05-10T00:42:37.046Z,13.40
2023-05-10T00:43:36.888Z,13.40
2023-05-10T00:44:36.898Z,13.42
2023-05-10T00:45:37.063Z,13.40
2023-05-10T00:46:37.126Z,13.43
2023-05-10T00:47:37.504Z,13.40
2023-05-10T00:48:37.535Z,13.40
2023-05-10T00:49:36.921Z,13.39
2023-05-10T00:50:37.714Z,13.40
2023-05-10T00:51:36.833Z,13.39
2023-05-10T00:52:37.857Z,13.38
2023-05-10T00:53:36.811Z,13.43
2023-05-10T00:54:36.823Z,13.39
2023-05-10T00:55:36.808Z,13.42
2023-05-10T00:56:36.803Z,13.40
2023-05-10T00:57:37.032Z,13.40
2023-05-10T00:58:37.105Z,13.39
2023-05-10T00:59:37.165Z,13.36
2023-05-10T01:00:36.770Z,13.40
2023-05-10T01:01:37.317Z,13.40
2023-05-10T01:02:37.430Z,13.42
2023-05-10T01:03:37.067Z,13.39
2023-05-10T01:04:37.506Z,13.39
2023-05-10T01:05:36.788Z,13.40
2023-05-10T01:06:36.933Z,13.36
2023-05-10T01:07:37.018Z,13.39
2023-05-10T01:08:37.427Z,13.39
2023-05-10T01:09:37.062Z,13.39
2023-05-10T01:10:37.298Z,13.38
2023-05-10T01:11:36.827Z,13.39
2023-05-10T01:12:36.758Z,13.39
2023-05-10T01:13:36.844Z,13.39
2023-05-10T01:14:37.383Z,13.39
2023-05-10T01:15:37.502Z,13.38
2023-05-10T01:16:36.866Z,13.38
2023-05-10T01:17:37.091Z,13.39
2023-05-10T01:18:36.740Z,13.39
2023-05-10T01:19:36.682Z,13.40
2023-05-10T01:20:36.734Z,13.39
2023-05-10T01:21:36.689Z,13.36
2023-05-10T01:22:36.645Z,13.35
2023-05-10T01:23:36.595Z,13.35
2023-05-10T01:24:36.631Z,13.32
2023-05-10T01:25:36.696Z,13.36
2023-05-10T01:26:36.590Z,13.38
2023-05-10T01:27:36.574Z,13.36
2023-05-10T01:28:36.583Z,13.39
2023-05-10T01:29:36.589Z,13.39
2023-05-10T01:30:36.805Z,13.39
2023-05-10T01:31:36.994Z,13.39
2023-05-10T01:32:36.799Z,13.39
2023-05-10T01:33:37.193Z,13.38
2023-05-10T01:34:37.261Z,13.38
2023-05-10T01:35:36.784Z,13.36
2023-05-10T01:36:36.498Z,13.38
2023-05-10T01:37:37.006Z,13.38
2023-05-10T01:38:36.605Z,13.36
2023-05-10T01:39:36.609Z,13.38
2023-05-10T01:40:37.939Z,13.35
2023-05-10T01:41:36.469Z,13.36
2023-05-10T01:42:36.475Z,13.35
2023-05-10T01:43:36.477Z,13.35
2023-05-10T01:44:36.469Z,13.36
2023-05-10T01:45:36.493Z,13.32
2023-05-10T01:46:36.689Z,13.35
2023-05-10T01:47:36.690Z,13.35
2023-05-10T01:48:36.457Z,13.32
2023-05-10T01:49:36.464Z,13.38
2023-05-10T01:50:36.412Z,13.35
2023-05-10T01:51:36.447Z,13.30
2023-05-10T01:52:36.501Z,13.38
2023-05-10T01:53:36.607Z,13.40
2023-05-10T01:54:36.621Z,13.38
2023-05-10T01:55:36.384Z,13.35
2023-05-10T01:56:36.402Z,13.35
2023-05-10T01:57:36.419Z,13.35
2023-05-10T01:58:36.376Z,13.35
2023-05-10T01:59:36.733Z,13.27
2023-05-10T02:00:36.416Z,13.30
2023-05-10T02:01:36.548Z,13.32
2023-05-10T02:02:36.776Z,13.35
2023-05-10T02:03:36.820Z,13.35
2023-05-10T02:04:36.773Z,13.32
2023-05-10T02:05:36.784Z,13.35
2023-05-10T02:06:36.640Z,13.35
2023-05-10T02:07:36.383Z,13.35
2023-05-10T02:08:36.806Z,13.38
2023-05-10T02:09:36.801Z,13.36
2023-05-10T02:10:36.869Z,13.38
2023-05-10T02:11:36.616Z,13.36
2023-05-10T02:12:36.616Z,13.35
2023-05-10T02:13:36.228Z,13.35
2023-05-10T02:14:36.225Z,13.30
2023-05-10T02:15:36.239Z,13.35
2023-05-10T02:16:36.330Z,13.30
2023-05-10T02:17:36.359Z,13.32
2023-05-10T02:18:36.319Z,13.32
2023-05-10T02:19:36.332Z,13.32
2023-05-10T02:20:36.198Z,13.30
2023-05-10T02:21:36.233Z,13.29
2023-05-10T02:22:36.288Z,13.26
2023-05-10T02:23:36.193Z,13.30
2023-05-10T02:24:36.293Z,13.26
2023-05-10T02:25:36.182Z,13.29
2023-05-10T02:26:36.168Z,13.24
2023-05-10T02:27:36.165Z,13.27
2023-05-10T02:28:36.179Z,13.26
2023-05-10T02:29:36.180Z,13.27
2023-05-10T02:30:36.338Z,13.26
2023-05-10T02:31:36.392Z,13.26
2023-05-10T02:32:36.359Z,13.26
2023-05-10T02:33:36.246Z,13.27
2023-05-10T02:34:36.352Z,13.24
2023-05-10T02:35:36.365Z,13.23
2023-05-10T02:36:36.369Z,13.24
2023-05-10T02:37:36.106Z,13.23
2023-05-10T02:38:36.078Z,13.21
2023-05-10T02:39:36.380Z,13.24
2023-05-10T02:40:36.394Z,13.24
2023-05-10T02:41:36.403Z,13.21
2023-05-10T02:42:36.405Z,13.24
2023-05-10T02:43:36.417Z,13.21
2023-05-10T02:44:36.424Z,13.17
2023-05-10T02:45:36.220Z,13.17
2023-05-10T02:46:36.092Z,13.19
2023-05-10T02:47:36.095Z,13.20
2023-05-10T02:48:36.009Z,13.21
2023-05-10T02:49:36.068Z,13.16
2023-05-10T02:50:36.130Z,13.16
2023-05-10T02:51:36.057Z,13.16
2023-05-10T02:52:36.259Z,13.16
2023-05-10T02:53:36.146Z,13.14
2023-05-10T02:54:36.399Z,13.17
2023-05-10T02:55:36.338Z,13.17
2023-05-10T02:56:35.962Z,13.20
2023-05-10T02:57:36.595Z,13.20
2023-05-10T02:58:36.102Z,13.20
2023-05-10T02:59:36.315Z,13.20
2023-05-10T03:00:35.914Z,13.21
2023-05-10T03:01:36.650Z,13.19
2023-05-10T03:02:35.934Z,13.20
2023-05-10T03:03:36.758Z,13.19
2023-05-10T03:04:36.420Z,13.19
2023-05-10T03:05:36.438Z,13.19
2023-05-10T03:06:36.646Z,13.16
2023-05-10T03:07:35.854Z,13.17
2023-05-10T03:08:35.878Z,13.16
2023-05-10T03:09:35.857Z,13.17
2023-05-10T03:10:35.871Z,13.19
2023-05-10T03:11:35.871Z,13.19
2023-05-10T03:12:35.843Z,13.19
2023-05-10T03:13:35.999Z,13.19
2023-05-10T03:14:36.015Z,13.19
2023-05-10T03:15:36.232Z,13.19
2023-05-10T03:16:35.925Z,13.21
2023-05-10T03:17:35.877Z,13.19
2023-05-10T03:18:35.870Z,13.20
2023-05-10T03:19:35.773Z,13.20
2023-05-10T03:20:36.005Z,13.23
2023-05-10T03:21:35.740Z,13.20
2023-05-10T03:22:35.750Z,13.21
2023-05-10T03:23:36.197Z,13.26
2023-05-10T03:24:35.765Z,13.23
2023-05-10T03:25:36.411Z,13.26
2023-05-10T03:26:35.703Z,13.21
2023-05-10T03:27:35.777Z,13.21
2023-05-10T03:28:36.779Z,13.21
2023-05-10T03:29:35.697Z,13.21
2023-05-10T03:30:35.703Z,13.19
2023-05-10T03:31:35.727Z,13.21
2023-05-10T03:32:35.714Z,13.21
2023-05-10T03:33:35.700Z,13.19
2023-05-10T03:34:35.704Z,13.14
2023-05-10T03:35:36.542Z,13.13
2023-05-10T03:36:35.732Z,13.13
2023-05-10T03:37:35.757Z,13.14
2023-05-10T03:38:35.757Z,13.11
2023-05-10T03:39:35.772Z,13.11
2023-05-10T03:40:35.787Z,12.98
2023-05-10T03:41:35.753Z,13.01
2023-05-10T03:42:35.808Z,12.98
2023-05-10T03:43:35.824Z,12.99
2023-05-10T03:44:35.844Z,12.98
2023-05-10T03:45:35.676Z,12.86
2023-05-10T03:46:35.586Z,12.87
2023-05-10T03:47:35.652Z,12.90
2023-05-10T03:48:35.730Z,12.93
2023-05-10T03:49:35.819Z,12.86
2023-05-10T03:50:35.772Z,12.90
2023-05-10T03:51:35.552Z,12.87
2023-05-10T03:52:35.793Z,12.88
2023-05-10T03:53:35.956Z,12.87
2023-05-10T03:54:35.970Z,12.87
2023-05-10T03:55:35.986Z,12.87
2023-05-10T03:56:35.487Z,12.84
2023-05-10T03:57:35.498Z,12.84
2023-05-10T03:58:35.489Z,12.83
2023-05-10T03:59:35.534Z,12.83
2023-05-10T04:00:35.507Z,12.83
2023-05-10T04:01:35.513Z,12.81
2023-05-10T04:02:35.543Z,12.84
2023-05-10T04:03:35.562Z,12.84
2023-05-10T04:04:35.494Z,12.80
2023-05-10T04:05:35.487Z,12.80
2023-05-10T04:06:35.639Z,12.79
2023-05-10T04:07:35.527Z,12.77
2023-05-10T04:08:35.523Z,12.79
2023-05-10T04:09:35.533Z,12.79
2023-05-10T04:10:35.546Z,12.76
2023-05-10T04:11:35.385Z,12.73
2023-05-10T04:12:35.402Z,12.71
2023-05-10T04:13:35.441Z,12.69
2023-05-10T04:14:35.499Z,12.65
2023-05-10T04:15:35.616Z,12.68
2023-05-10T04:16:35.428Z,12.66
2023-05-10T04:17:35.660Z,12.69
2023-05-10T04:18:35.627Z,12.68
2023-05-10T04:19:35.658Z,12.69
2023-05-10T04:20:35.673Z,12.68
2023-05-10T04:21:35.364Z,12.66
2023-05-10T04:22:35.449Z,12.66
2023-05-10T04:23:35.665Z,12.65
2023-05-10T04:24:35.721Z,12.66
2023-05-10T04:25:35.735Z,12.68
2023-05-10T04:26:35.755Z,12.65
2023-05-10T04:27:35.594Z,12.65
2023-05-10T04:28:35.349Z,12.63
2023-05-10T04:29:35.434Z,12.59
2023-05-10T04:30:35.812Z,12.59
2023-05-10T04:31:35.285Z,12.62
2023-05-10T04:32:35.320Z,12.62
2023-05-10T04:33:35.836Z,12.61
2023-05-10T04:34:35.666Z,12.61
2023-05-10T04:35:35.863Z,12.62
2023-05-10T04:36:35.876Z,12.63
2023-05-10T04:37:35.606Z,12.66
2023-05-10T04:38:35.736Z,12.69
2023-05-10T04:39:35.262Z,12.63
2023-05-10T04:40:35.176Z,12.68
2023-05-10T04:41:35.192Z,12.63
2023-05-10T04:42:35.247Z,12.63
2023-05-10T04:43:35.327Z,12.68
2023-05-10T04:44:35.326Z,12.66
2023-05-10T04:45:35.403Z,12.68
2023-05-10T04:46:35.328Z,12.63
2023-05-10T04:47:35.579Z,12.62
2023-05-10T04:48:35.641Z,12.68
2023-05-10T04:49:35.652Z,12.69
2023-05-10T04:50:35.719Z,12.69
2023-05-10T04:51:35.558Z,12.72
2023-05-10T04:52:35.272Z,12.76
2023-05-10T04:53:35.841Z,12.76
2023-05-10T04:54:35.993Z,12.79
2023-05-10T04:55:35.379Z,12.81
2023-05-10T04:56:35.074Z,12.81
2023-05-10T04:57:35.057Z,12.79
2023-05-10T04:58:35.079Z,12.80
2023-05-10T04:59:35.137Z,12.83
2023-05-10T05:00:35.171Z,12.79
2023-05-10T05:01:35.246Z,12.81
2023-05-10T05:02:35.335Z,12.79
2023-05-10T05:03:35.413Z,12.80
2023-05-10T05:04:35.366Z,12.79
2023-05-10T05:05:36.509Z,12.77
2023-05-10T05:06:35.144Z,12.79
2023-05-10T05:07:34.989Z,12.84
2023-05-10T05:08:35.007Z,12.86
2023-05-10T05:09:35.076Z,12.86
2023-05-10T05:10:35.074Z,12.90
2023-05-10T05:11:35.045Z,12.87
2023-05-10T05:12:35.258Z,12.91
2023-05-10T05:13:35.136Z,12.95
2023-05-10T05:14:35.006Z,12.93
2023-05-10T05:15:35.432Z,12.91
2023-05-10T05:16:35.117Z,12.93
2023-05-10T05:17:35.470Z,12.95
2023-05-10T05:18:35.634Z,12.91
2023-05-10T05:19:35.232Z,12.93
2023-05-10T05:20:35.084Z,12.95
2023-05-10T05:21:35.838Z,12.90
2023-05-10T05:22:34.893Z,12.88
2023-05-10T05:23:35.029Z,12.91
2023-05-10T05:24:35.209Z,12.91
2023-05-10T05:25:35.100Z,12.96
2023-05-10T05:26:35.832Z,13.01
2023-05-10T05:27:35.491Z,12.98
2023-05-10T05:28:34.874Z,13.01
2023-05-10T05:29:35.842Z,12.96
2023-05-10T05:30:35.735Z,13.02
2023-05-10T05:31:35.210Z,13.04
2023-05-10T05:32:35.690Z,13.09
2023-05-10T05:33:34.957Z,13.11
2023-05-10T05:36:00.820Z,13.06
2023-05-10T05:37:00.768Z,13.13
2023-05-10T05:38:00.827Z,13.14
2023-05-10T05:39:00.891Z,13.09
2023-05-10T05:40:00.798Z,13.13
2023-05-10T05:41:00.803Z,13.13
2023-05-10T05:42:00.917Z,13.17
2023-05-10T05:43:01.127Z,13.17
2023-05-10T05:44:01.135Z,13.08
2023-05-10T05:45:01.336Z,13.09
2023-05-10T05:46:01.025Z,13.08
2023-05-10T05:47:01.366Z,13.06
2023-05-10T05:48:01.020Z,13.09
2023-05-10T05:49:01.089Z,13.09
2023-05-10T05:50:01.424Z,13.14
2023-05-10T05:51:00.690Z,13.19
2023-05-10T05:52:00.687Z,13.21
2023-05-10T05:53:00.680Z,13.24
2023-05-10T05:54:00.745Z,13.27
2023-05-10T05:55:00.678Z,13.29
2023-05-10T05:56:00.623Z,13.29
2023-05-10T05:57:01.496Z,13.32
2023-05-10T05:58:01.031Z,13.27
2023-05-10T05:59:00.725Z,13.36
2023-05-10T06:00:00.745Z,13.30
2023-05-10T06:01:01.529Z,13.36
2023-05-10T06:02:00.918Z,13.42
2023-05-10T06:03:00.701Z,13.49
2023-05-10T06:04:00.639Z,13.54
2023-05-10T06:05:00.668Z,13.65
2023-05-10T06:06:00.677Z,13.64
2023-05-10T06:07:00.721Z,13.65
2023-05-10T06:08:00.799Z,13.63
2023-05-10T06:09:00.906Z,13.65
2023-05-10T06:10:00.918Z,13.71
2023-05-10T06:11:00.709Z,13.64
2023-05-10T06:12:00.617Z,13.63
2023-05-10T06:13:01.215Z,13.65
2023-05-10T06:14:01.046Z,13.64
2023-05-10T06:15:00.553Z,13.63
2023-05-10T06:16:00.775Z,13.61
2023-05-10T06:17:01.028Z,13.60
2023-05-10T06:18:00.690Z,13.58
2023-05-10T06:19:01.172Z,13.57
2023-05-10T06:20:01.289Z,13.47
2023-05-10T06:21:00.580Z,13.51
2023-05-10T06:22:00.695Z,13.46
2023-05-10T06:23:00.897Z,13.42
2023-05-10T06:24:01.373Z,13.45
2023-05-10T06:25:01.283Z,13.42
2023-05-10T06:26:01.237Z,13.43
2023-05-10T06:27:00.417Z,13.39
2023-05-10T06:28:00.464Z,13.39
2023-05-10T06:29:00.444Z,13.30
2023-05-10T06:30:11.741Z,13.29
2023-05-10T06:31:00.415Z,13.21
2023-05-10T06:32:00.365Z,13.19
2023-05-10T06:33:00.637Z,13.16
2023-05-10T06:34:00.385Z,13.23
2023-05-10T06:35:00.478Z,13.21
2023-05-10T06:36:00.375Z,13.24
2023-05-10T06:37:00.382Z,13.30
2023-05-10T06:38:00.390Z,13.36
2023-05-10T06:39:00.400Z,13.53
2023-05-10T06:40:00.433Z,13.73
2023-05-10T06:41:00.413Z,13.72
2023-05-10T06:42:00.524Z,13.82
2023-05-10T06:43:00.433Z,13.82
2023-05-10T06:44:00.542Z,13.90
2023-05-10T06:45:00.332Z,13.98
2023-05-10T06:46:00.497Z,14.08
2023-05-10T06:47:00.558Z,14.04
2023-05-10T06:48:00.581Z,14.04
2023-05-10T06:49:00.579Z,14.09
2023-05-10T06:50:00.578Z,14.11
2023-05-10T06:51:00.586Z,14.11
2023-05-10T06:52:00.596Z,14.05
2023-05-10T06:53:00.600Z,14.09
2023-05-10T06:54:00.398Z,14.08
2023-05-10T06:55:00.613Z,13.98
2023-05-10T06:56:00.620Z,14.04
2023-05-10T06:57:01.933Z,14.03
2023-05-10T06:58:00.429Z,14.05
2023-05-10T06:59:00.683Z,14.03
2023-05-10T07:00:00.667Z,14.01
2023-05-10T07:01:00.353Z,13.98
2023-05-10T07:02:00.828Z,13.96
2023-05-10T07:03:00.786Z,13.85
2023-05-10T07:04:00.775Z,13.85
2023-05-10T07:05:02.803Z,13.82
2023-05-10T07:06:00.191Z,13.78
2023-05-10T07:07:00.296Z,13.78
2023-05-10T07:08:00.252Z,13.73
2023-05-10T07:09:00.402Z,13.72
2023-05-10T07:10:00.419Z,13.72
2023-05-10T07:11:00.155Z,13.68
2023-05-10T07:12:00.641Z,13.65
2023-05-10T07:13:00.230Z,13.64
2023-05-10T07:14:00.166Z,13.60
2023-05-10T07:15:00.762Z,13.63
2023-05-10T07:16:00.164Z,13.61
2023-05-10T07:17:00.687Z,13.64
2023-05-10T07:18:01.115Z,13.67
2023-05-10T07:19:00.484Z,13.61
2023-05-10T07:20:00.095Z,13.64
2023-05-10T07:21:00.112Z,13.65
2023-05-10T07:22:00.043Z,13.63
2023-05-10T07:23:00.038Z,13.68
2023-05-10T07:24:00.023Z,13.68
2023-05-10T07:25:00.146Z,13.67
2023-05-10T07:26:00.135Z,13.68
2023-05-10T07:27:00.174Z,13.71
2023-05-10T07:28:00.134Z,13.73
2023-05-10T07:29:00.025Z,13.68
2023-05-10T07:30:00.209Z,13.68
2023-05-10T07:30:59.994Z,13.73
2023-05-10T07:31:59.994Z,13.75
2023-05-10T07:33:00.160Z,13.75
2023-05-10T07:33:59.964Z,13.79
2023-05-10T07:34:59.981Z,13.83
2023-05-10T07:36:00.192Z,13.86
2023-05-10T07:37:00.312Z,13.90
2023-05-10T07:38:00.310Z,14.00
2023-05-10T07:39:00.326Z,14.12
2023-05-10T07:40:00.179Z,14.22
2023-05-10T07:41:01.422Z,14.21
2023-05-10T07:42:00.323Z,14.30
2023-05-10T07:43:00.346Z,14.34
2023-05-10T07:44:00.360Z,14.37
2023-05-10T07:45:00.390Z,14.49
2023-05-10T07:46:00.383Z,14.56
2023-05-10T07:47:00.269Z,14.59
2023-05-10T07:48:00.392Z,14.63
2023-05-10T07:49:00.378Z,14.66
2023-05-10T07:50:00.396Z,14.59
2023-05-10T07:51:00.394Z,14.63
2023-05-10T07:52:00.500Z,14.71
2023-05-10T07:53:00.508Z,14.69
2023-05-10T07:54:00.513Z,14.71
2023-05-10T07:55:00.521Z,14.77
2023-05-10T07:56:00.536Z,14.87
2023-05-10T07:57:00.543Z,14.86
2023-05-10T07:58:00.540Z,14.85
2023-05-10T07:59:00.552Z,14.82
2023-05-10T08:00:00.577Z,14.85
2023-05-10T08:00:59.843Z,14.85
2023-05-10T08:01:59.816Z,14.86
2023-05-10T08:03:00.021Z,14.85
2023-05-10T08:03:59.962Z,14.86
2023-05-10T08:04:59.975Z,14.83
2023-05-10T08:05:59.784Z,14.78
2023-05-10T08:07:00.130Z,14.77
2023-05-10T08:08:00.208Z,14.71
2023-05-10T08:09:00.324Z,14.70
2023-05-10T08:10:00.315Z,14.69
2023-05-10T08:11:00.434Z,14.64
2023-05-10T08:12:00.463Z,14.59
2023-05-10T08:13:00.548Z,14.63
2023-05-10T08:14:00.535Z,14.61
2023-05-10T08:15:00.676Z,14.58
2023-05-10T08:16:00.640Z,14.59
2023-05-10T08:17:00.505Z,14.58
2023-05-10T08:18:00.686Z,14.53
2023-05-10T08:19:00.625Z,14.51
2023-05-10T08:20:00.469Z,14.53
2023-05-10T08:20:59.595Z,14.52
2023-05-10T08:21:59.606Z,14.51
2023-05-10T08:22:59.592Z,14.59
2023-05-10T08:23:59.606Z,14.69
2023-05-10T08:24:59.605Z,14.82
2023-05-10T08:25:59.609Z,14.95
2023-05-10T08:26:59.624Z,15.05
2023-05-10T08:27:59.634Z,15.12
2023-05-10T08:28:59.549Z,15.30
2023-05-10T08:29:59.657Z,15.38
2023-05-10T08:30:59.713Z,15.51
2023-05-10T08:31:59.546Z,15.70
2023-05-10T08:32:59.602Z,15.76
2023-05-10T08:33:59.675Z,15.72
2023-05-10T08:34:59.708Z,15.65
2023-05-10T08:35:59.692Z,15.62
2023-05-10T08:36:59.694Z,15.60
2023-05-10T08:37:59.693Z,15.69
2023-05-10T08:38:59.497Z,15.66
2023-05-10T08:39:59.832Z,15.66
2023-05-10T08:41:00.129Z,15.62
2023-05-10T08:41:59.832Z,15.81
2023-05-10T08:42:59.844Z,15.99
2023-05-10T08:43:59.839Z,16.17
2023-05-10T08:44:59.844Z,16.33
2023-05-10T08:45:59.855Z,16.58
2023-05-10T08:46:59.915Z,16.55
2023-05-10T08:47:59.885Z,16.64
2023-05-10T08:48:59.795Z,16.62
2023-05-10T08:49:59.891Z,16.59
2023-05-10T08:50:59.977Z,16.62
2023-05-10T08:51:59.900Z,16.74
2023-05-10T08:52:59.905Z,16.65
2023-05-10T08:53:59.913Z,16.58
2023-05-10T08:54:59.613Z,16.44
2023-05-10T08:55:59.928Z,16.42
2023-05-10T08:56:59.949Z,16.39
2023-05-10T08:57:59.421Z,16.42
2023-05-10T08:58:59.368Z,16.36
2023-05-10T08:59:59.381Z,16.34
2023-05-10T09:00:59.468Z,16.25
2023-05-10T09:01:59.470Z,16.18
2023-05-10T09:02:59.629Z,16.14
2023-05-10T09:03:59.607Z,16.10
2023-05-10T09:04:59.848Z,16.17
2023-05-10T09:05:59.717Z,16.21
2023-05-10T09:06:59.835Z,16.25
2023-05-10T09:07:59.919Z,16.32
2023-05-10T09:09:00.025Z,16.36
2023-05-10T09:10:00.065Z,16.65
2023-05-10T09:10:59.831Z,16.77
2023-05-10T09:12:00.128Z,16.94
2023-05-10T09:13:00.185Z,17.07
2023-05-10T09:13:59.273Z,17.10
2023-05-10T09:15:00.216Z,17.28
2023-05-10T09:16:07.001Z,17.37
2023-05-10T09:16:59.271Z,17.39
2023-05-10T09:17:59.283Z,17.28
2023-05-10T09:18:59.444Z,17.20
2023-05-10T09:19:59.420Z,17.31
2023-05-10T09:20:59.407Z,17.49
2023-05-10T09:21:59.167Z,17.49
2023-05-10T09:22:59.191Z,17.59
2023-05-10T09:23:59.193Z,17.84
2023-05-10T09:24:59.196Z,17.86
2023-05-10T09:25:59.150Z,17.84
2023-05-10T09:26:59.219Z,17.88
2023-05-10T09:27:59.248Z,18.01
2023-05-10T09:28:59.272Z,18.28
2023-05-10T09:29:59.247Z,18.39
2023-05-10T09:30:59.373Z,18.46
2023-05-10T09:31:59.360Z,18.48
2023-05-10T09:32:59.321Z,18.56
2023-05-10T09:33:59.287Z,18.63
2023-05-10T09:34:59.302Z,18.63
2023-05-10T09:35:59.311Z,18.58
2023-05-10T09:36:59.322Z,18.70
2023-05-10T09:37:59.331Z,18.64
2023-05-10T09:38:59.337Z,18.56
2023-05-10T09:39:59.352Z,18.42
2023-05-10T09:40:59.127Z,18.17
2023-05-10T09:41:59.367Z,17.84
2023-05-10T09:42:59.392Z,17.57
2023-05-10T09:43:59.032Z,17.47
2023-05-10T09:44:59.148Z,17.39
2023-05-10T09:45:59.446Z,17.24
2023-05-10T09:46:59.438Z,17.16
2023-05-10T09:47:59.222Z,16.95
2023-05-10T09:48:59.399Z,16.90
2023-05-10T09:49:59.133Z,16.80
2023-05-10T09:50:59.489Z,16.83
2023-05-10T09:51:59.491Z,16.73
2023-05-10T09:52:59.518Z,16.69
2023-05-10T09:53:59.534Z,16.65
2023-05-10T09:54:59.038Z,16.61
2023-05-10T09:57:09.559Z,16.49
2023-05-10T09:58:09.599Z,16.49
2023-05-10T09:59:09.608Z,16.46
2023-05-10T10:00:09.642Z,16.55
2023-05-10T10:01:09.647Z,16.52
2023-05-10T10:02:09.834Z,16.49
2023-05-10T10:03:09.461Z,16.49
2023-05-10T10:04:09.430Z,16.54
2023-05-10T10:05:09.525Z,16.55
2023-05-10T10:06:18.760Z,16.57
2023-05-10T10:07:09.545Z,16.55
2023-05-10T10:08:09.614Z,16.49
2023-05-10T10:09:09.720Z,16.54
2023-05-10T10:10:09.818Z,16.69
2023-05-10T10:11:09.577Z,16.84
2023-05-10T10:12:09.372Z,17.02
2023-05-10T10:13:09.899Z,17.04
2023-05-10T10:14:09.910Z,17.24
2023-05-10T10:15:09.917Z,17.62
2023-05-10T10:16:09.950Z,17.87
2023-05-10T10:17:09.991Z,17.66
2023-05-10T10:18:09.447Z,17.83
2023-05-10T10:19:09.954Z,17.79
2023-05-10T10:20:12.016Z,17.78
2023-05-10T10:21:09.955Z,17.88
2023-05-10T10:22:09.314Z,18.12
2023-05-10T10:23:09.968Z,18.39
2023-05-10T10:24:09.978Z,18.56
2023-05-10T10:25:09.973Z,18.70
2023-05-10T10:26:10.000Z,18.60
2023-05-10T10:27:09.990Z,18.52
2023-05-10T10:28:09.996Z,18.48
2023-05-10T10:30:35.216Z,18.51
2023-05-10T10:31:35.198Z,18.42
2023-05-10T10:32:35.201Z,18.41
2023-05-10T10:33:35.221Z,18.33
2023-05-10T10:34:35.183Z,18.28
2023-05-10T10:35:35.184Z,18.26
2023-05-10T10:36:35.151Z,18.39
2023-05-10T10:37:35.358Z,18.61
2023-05-10T10:38:35.129Z,18.58
2023-05-10T10:39:35.277Z,18.74
2023-05-10T10:40:35.295Z,18.81
2023-05-10T10:41:35.274Z,18.93
2023-05-10T10:42:35.276Z,19.26
2023-05-10T10:43:35.297Z,19.49
2023-05-10T10:44:35.320Z,19.19
2023-05-10T10:45:35.305Z,19.15
2023-05-10T10:46:35.475Z,19.27
2023-05-10T10:47:35.346Z,19.19
2023-05-10T10:48:35.322Z,19.53
2023-05-10T10:49:35.330Z,19.70
2023-05-10T10:50:35.098Z,19.38
2023-05-10T10:51:35.341Z,18.94
2023-05-10T10:52:35.394Z,18.42
2023-05-10T10:53:35.395Z,18.13
2023-05-10T10:54:35.388Z,18.09
2023-05-10T10:55:35.395Z,18.03
2023-05-10T10:56:37.026Z,17.94
2023-05-10T10:57:35.391Z,17.79
2023-05-10T10:58:35.385Z,17.63
2023-05-10T10:59:34.994Z,17.50
2023-05-10T11:00:35.021Z,17.49
2023-05-10T11:01:35.036Z,17.47
2023-05-10T11:02:35.024Z,17.37
2023-05-10T11:03:35.037Z,17.34
2023-05-10T11:04:35.141Z,17.27
2023-05-10T11:05:35.136Z,17.30
2023-05-10T11:06:35.306Z,17.35
2023-05-10T11:07:35.284Z,17.54
2023-05-10T11:08:37.459Z,17.56
2023-05-10T11:09:35.469Z,17.62
2023-05-10T11:10:34.963Z,17.79
2023-05-10T11:11:35.611Z,18.26
2023-05-10T11:12:35.761Z,18.82
2023-05-10T11:13:35.703Z,18.85
2023-05-10T11:14:35.700Z,18.71
2023-05-10T11:15:35.715Z,18.68
2023-05-10T11:16:35.736Z,18.52
2023-05-10T11:17:34.961Z,19.09
2023-05-10T11:18:34.947Z,19.74
2023-05-10T11:19:34.911Z,20.08
2023-05-10T11:20:34.920Z,20.29
2023-05-10T11:21:34.941Z,20.32
2023-05-10T11:22:34.970Z,20.42
2023-05-10T11:23:35.141Z,20.27
2023-05-10T11:24:35.162Z,20.18
2023-05-10T11:25:34.976Z,20.09
2023-05-10T11:26:34.990Z,20.25
2023-05-10T11:27:34.807Z,20.49
2023-05-10T11:28:34.823Z,20.34
2023-05-10T11:29:34.827Z,19.99
2023-05-10T11:30:34.896Z,19.99
2023-05-10T11:31:34.970Z,19.82
2023-05-10T11:32:34.823Z,19.97
2023-05-10T11:33:35.067Z,20.14
2023-05-10T11:36:01.022Z,20.12
2023-05-10T11:37:01.032Z,19.82
2023-05-10T11:38:01.030Z,19.87
2023-05-10T11:39:01.047Z,20.08
2023-05-10T11:40:01.077Z,20.42
2023-05-10T11:41:01.063Z,20.63
2023-05-10T11:42:01.068Z,20.68
2023-05-10T11:43:01.070Z,20.67
2023-05-10T11:44:01.120Z,20.49
2023-05-10T11:45:01.084Z,20.17
2023-05-10T11:47:26.928Z,19.24
2023-05-10T11:48:27.175Z,18.89
2023-05-10T11:49:27.176Z,18.78
2023-05-10T11:50:27.181Z,18.78
2023-05-10T11:51:27.294Z,18.61
2023-05-10T11:52:27.305Z,18.43
2023-05-10T11:53:27.381Z,18.39
2023-05-10T11:54:27.417Z,18.36
2023-05-10T11:55:27.425Z,18.39
2023-05-10T11:56:27.453Z,18.45
2023-05-10T11:57:26.529Z,18.88
2023-05-10T11:58:26.521Z,19.49
2023-05-10T11:59:26.629Z,20.17
2023-05-10T12:00:26.636Z,20.58
2023-05-10T12:01:26.746Z,20.83
2023-05-10T12:02:26.850Z,20.90
2023-05-10T12:03:27.034Z,21.23
2023-05-10T12:04:26.490Z,21.28
2023-05-10T12:05:26.971Z,21.45
2023-05-10T12:06:26.982Z,21.19
2023-05-10T12:07:26.465Z,21.00
2023-05-10T12:08:26.446Z,21.04
2023-05-10T12:09:39.390Z,20.73
2023-05-10T12:10:26.491Z,20.27
2023-05-10T12:11:26.515Z,19.89
2023-05-10T12:12:26.508Z,19.86
2023-05-10T12:13:26.514Z,20.22
2023-05-10T12:14:26.517Z,20.34
2023-05-10T12:15:26.428Z,20.34
2023-05-10T12:16:26.621Z,19.97
2023-05-10T12:17:26.564Z,20.12
2023-05-10T12:18:26.645Z,19.99
2023-05-10T12:19:26.552Z,19.94
2023-05-10T12:20:26.560Z,20.17
2023-05-10T12:21:26.603Z,20.71
2023-05-10T12:22:26.587Z,20.95
2023-05-10T12:23:26.389Z,20.61
2023-05-10T12:24:26.395Z,20.25
2023-05-10T12:25:26.390Z,19.90
2023-05-10T12:26:26.400Z,19.54
2023-05-10T12:27:26.411Z,19.31
2023-05-10T12:28:26.424Z,19.13
2023-05-10T12:29:26.516Z,18.85
2023-05-10T12:30:26.350Z,18.68
2023-05-10T12:31:26.394Z,18.74
2023-05-10T12:32:26.358Z,18.66
2023-05-10T12:33:26.346Z,18.60
2023-05-10T12:34:26.362Z,18.48
2023-05-10T12:35:26.365Z,18.31
2023-05-10T12:36:26.276Z,18.18
2023-05-10T12:37:26.377Z,18.13
2023-05-10T12:38:26.496Z,17.99
2023-05-10T12:39:26.512Z,17.99
2023-05-10T12:40:26.615Z,17.99
2023-05-10T12:41:26.725Z,17.91
2023-05-10T12:42:26.728Z,17.91
2023-05-10T12:43:26.738Z,17.96
2023-05-10T12:44:26.740Z,17.91
2023-05-10T12:45:26.867Z,17.87
2023-05-10T12:46:26.923Z,17.83
2023-05-10T12:47:26.937Z,17.83
2023-05-10T12:48:26.881Z,17.81
2023-05-10T12:49:26.868Z,17.66
2023-05-10T12:50:26.885Z,17.35
2023-05-10T12:51:26.831Z,17.09
2023-05-10T12:52:26.794Z,16.80
2023-05-10T12:53:26.181Z,16.57
2023-05-10T12:54:26.196Z,16.36
2023-05-10T12:55:26.201Z,16.21
2023-05-10T12:56:26.232Z,16.16
2023-05-10T12:57:26.215Z,16.14
2023-05-10T12:58:34.842Z,16.09
2023-05-10T12:59:26.436Z,16.00
2023-05-10T13:00:26.442Z,15.93